sensor_id;sensor_type;location;lat;lon;timestamp;P1;durP1;ratioP1;P2;durP2;ratioP2
38853;SDS011;24606;51.992;4.198;2023-05-18T00:02:41;2.83;;;1.50;;
38853;SDS011;24606;51.992;4.198;2023-05-18T00:07:43;2.60;;;1.42;;
38853;SDS011;24606;51.992;4.198;2023-05-18T00:12:46;2.90;;;1.73;;
38853;SDS011;24606;51.992;4.198;2023-05-18T00:17:48;3.50;;;1.65;;
38853;SDS011;24606;51.992;4.198;2023-05-18T00:22:52;2.65;;;1.48;;
38853;SDS011;24606;51.992;4.198;2023-05-18T00:27:55;2.55;;;1.48;;
38853;SDS011;24606;51.992;4.198;2023-05-18T00:32:57;3.92;;;1.63;;
38853;SDS011;24606;51.992;4.198;2023-05-18T00:37:58;3.55;;;1.40;;
38853;SDS011;24606;51.992;4.198;2023-05-18T00:43:02;2.38;;;1.33;;
38853;SDS011;24606;51.992;4.198;2023-05-18T00:48:05;2.38;;;1.52;;
38853;SDS011;24606;51.992;4.198;2023-05-18T00:53:07;2.45;;;1.40;;
38853;SDS011;24606;51.992;4.198;2023-05-18T00:58:11;3.05;;;1.48;;
38853;SDS011;24606;51.992;4.198;2023-05-18T01:03:13;1.92;;;0.95;;
38853;SDS011;24606;51.992;4.198;2023-05-18T01:08:15;2.97;;;1.30;;
38853;SDS011;24606;51.992;4.198;2023-05-18T01:19:21;2.45;;;1.08;;
38853;SDS011;24606;51.992;4.198;2023-05-18T06:25:58;0.98;;;0.47;;
38853;SDS011;24606;51.992;4.198;2023-05-18T06:31:00;1.02;;;0.70;;
38853;SDS011;24606;51.992;4.198;2023-05-18T06:41:05;1.30;;;0.67;;
38853;SDS011;24606;51.992;4.198;2023-05-18T07:16:05;3.00;;;1.23;;
38853;SDS011;24606;51.992;4.198;2023-05-18T07:21:07;5.57;;;0.70;;
38853;SDS011;24606;51.992;4.198;2023-05-18T07:26:09;3.47;;;0.90;;
38853;SDS011;24606;51.992;4.198;2023-05-18T07:31:13;8.63;;;1.67;;
38853;SDS011;24606;51.992;4.198;2023-05-18T07:36:15;7.07;;;2.10;;
38853;SDS011;24606;51.992;4.198;2023-05-18T07:41:17;6.68;;;2.35;;
38853;SDS011;24606;51.992;4.198;2023-05-18T07:46:21;7.97;;;1.85;;
38853;SDS011;24606;51.992;4.198;2023-05-18T07:51:23;5.88;;;1.88;;
38853;SDS011;24606;51.992;4.198;2023-05-18T08:08:16;9.83;;;2.60;;
38853;SDS011;24606;51.992;4.198;2023-05-18T08:19:15;18.05;;;5.88;;
38853;SDS011;24606;51.992;4.198;2023-05-18T08:29:20;16.73;;;5.97;;
38853;SDS011;24606;51.992;4.198;2023-05-18T08:34:22;12.88;;;4.72;;
38853;SDS011;24606;51.992;4.198;2023-05-18T08:44:33;11.65;;;3.47;;
38853;SDS011;24606;51.992;4.198;2023-05-18T08:49:40;6.78;;;2.50;;
38853;SDS011;24606;51.992;4.198;2023-05-18T08:54:43;6.13;;;3.05;;
38853;SDS011;24606;51.992;4.198;2023-05-18T08:59:47;5.70;;;2.40;;
38853;SDS011;24606;51.992;4.198;2023-05-18T09:04:49;9.32;;;2.58;;
38853;SDS011;24606;51.992;4.198;2023-05-18T09:09:53;6.03;;;2.55;;
38853;SDS011;24606;51.992;4.198;2023-05-18T09:14:56;6.88;;;2.50;;
38853;SDS011;24606;51.992;4.198;2023-05-18T09:19:59;10.07;;;3.60;;
38853;SDS011;24606;51.992;4.198;2023-05-18T09:25:05;7.68;;;2.47;;
38853;SDS011;24606;51.992;4.198;2023-05-18T09:30:09;8.02;;;2.70;;
38853;SDS011;24606;51.992;4.198;2023-05-18T09:35:12;7.20;;;2.50;;
38853;SDS011;24606;51.992;4.198;2023-05-18T09:40:15;7.63;;;2.40;;
38853;SDS011;24606;51.992;4.198;2023-05-18T09:45:19;6.53;;;2.30;;
38853;SDS011;24606;51.992;4.198;2023-05-18T09:50:25;2.95;;;1.52;;
38853;SDS011;24606;51.992;4.198;2023-05-18T09:55:28;3.53;;;1.67;;
38853;SDS011;24606;51.992;4.198;2023-05-18T10:00:30;5.60;;;2.20;;
38853;SDS011;24606;51.992;4.198;2023-05-18T10:10:37;3.38;;;1.95;;
38853;SDS011;24606;51.992;4.198;2023-05-18T10:15:45;5.05;;;2.30;;
38853;SDS011;24606;51.992;4.198;2023-05-18T10:20:48;8.65;;;2.50;;
38853;SDS011;24606;51.992;4.198;2023-05-18T10:25:53;7.82;;;3.08;;
38853;SDS011;24606;51.992;4.198;2023-05-18T10:30:55;6.05;;;1.95;;
38853;SDS011;24606;51.992;4.198;2023-05-18T10:35:58;10.32;;;3.85;;
38853;SDS011;24606;51.992;4.198;2023-05-18T10:41:05;16.45;;;5.03;;
38853;SDS011;24606;51.992;4.198;2023-05-18T10:46:08;12.07;;;5.03;;
38853;SDS011;24606;51.992;4.198;2023-05-18T11:01:16;13.90;;;5.20;;
38853;SDS011;24606;51.992;4.198;2023-05-18T11:11:25;11.55;;;4.22;;
38853;SDS011;24606;51.992;4.198;2023-05-18T11:16:31;10.30;;;3.47;;
38853;SDS011;24606;51.992;4.198;2023-05-18T11:21:50;9.15;;;3.75;;
38853;SDS011;24606;51.992;4.198;2023-05-18T11:26:57;8.27;;;3.58;;
38853;SDS011;24606;51.992;4.198;2023-05-18T11:32:02;9.20;;;3.88;;
38853;SDS011;24606;51.992;4.198;2023-05-18T11:37:05;7.35;;;3.20;;
38853;SDS011;24606;51.992;4.198;2023-05-18T11:42:10;7.40;;;2.95;;
38853;SDS011;24606;51.992;4.198;2023-05-18T11:47:13;6.50;;;2.95;;
38853;SDS011;24606;51.992;4.198;2023-05-18T11:57:22;6.38;;;2.47;;
38853;SDS011;24606;51.992;4.198;2023-05-18T12:02:26;6.65;;;2.47;;
38853;SDS011;24606;51.992;4.198;2023-05-18T12:07:31;5.07;;;2.20;;
38853;SDS011;24606;51.992;4.198;2023-05-18T12:12:35;5.90;;;2.40;;
38853;SDS011;24606;51.992;4.198;2023-05-18T12:17:38;4.38;;;2.20;;
38853;SDS011;24606;51.992;4.198;2023-05-18T12:22:41;4.65;;;2.10;;
38853;SDS011;24606;51.992;4.198;2023-05-18T12:27:45;4.50;;;1.90;;
38853;SDS011;24606;51.992;4.198;2023-05-18T12:32:48;4.18;;;1.77;;
38853;SDS011;24606;51.992;4.198;2023-05-18T12:37:51;6.15;;;1.98;;
38853;SDS011;24606;51.992;4.198;2023-05-18T12:42:56;3.47;;;1.38;;
38853;SDS011;24606;51.992;4.198;2023-05-18T12:48:02;2.50;;;1.50;;
38853;SDS011;24606;51.992;4.198;2023-05-18T12:53:05;4.10;;;1.52;;
38853;SDS011;24606;51.992;4.198;2023-05-18T12:58:10;3.17;;;1.20;;
38853;SDS011;24606;51.992;4.198;2023-05-18T13:03:16;3.17;;;1.50;;
38853;SDS011;24606;51.992;4.198;2023-05-18T13:08:23;2.78;;;1.15;;
38853;SDS011;24606;51.992;4.198;2023-05-18T13:18:28;3.83;;;1.00;;
38853;SDS011;24606;51.992;4.198;2023-05-18T13:23:30;1.25;;;0.95;;
38853;SDS011;24606;51.992;4.198;2023-05-18T13:33:36;2.22;;;1.10;;
38853;SDS011;24606;51.992;4.198;2023-05-18T13:43:41;3.13;;;1.08;;
38853;SDS011;24606;51.992;4.198;2023-05-18T13:48:43;2.53;;;1.08;;
38853;SDS011;24606;51.992;4.198;2023-05-18T13:58:48;3.03;;;1.00;;
38853;SDS011;24606;51.992;4.198;2023-05-18T14:03:50;4.03;;;1.05;;
38853;SDS011;24606;51.992;4.198;2023-05-18T14:13:55;1.10;;;0.75;;
38853;SDS011;24606;51.992;4.198;2023-05-18T14:18:56;1.67;;;0.93;;
38853;SDS011;24606;51.992;4.198;2023-05-18T14:23:58;2.60;;;1.08;;
38853;SDS011;24606;51.992;4.198;2023-05-18T14:29:04;2.28;;;1.00;;
38853;SDS011;24606;51.992;4.198;2023-05-18T14:34:05;2.60;;;1.00;;
38853;SDS011;24606;51.992;4.198;2023-05-18T14:39:08;2.25;;;0.95;;
38853;SDS011;24606;51.992;4.198;2023-05-18T14:44:11;3.00;;;0.90;;
38853;SDS011;24606;51.992;4.198;2023-05-18T14:49:13;2.15;;;0.80;;
38853;SDS011;24606;51.992;4.198;2023-05-18T14:54:15;1.83;;;0.70;;
38853;SDS011;24606;51.992;4.198;2023-05-18T14:59:19;3.83;;;0.90;;
38853;SDS011;24606;51.992;4.198;2023-05-18T15:04:21;1.10;;;0.60;;
38853;SDS011;24606;51.992;4.198;2023-05-18T15:09:24;2.28;;;1.05;;
38853;SDS011;24606;51.992;4.198;2023-05-18T15:14:27;1.58;;;0.63;;
38853;SDS011;24606;51.992;4.198;2023-05-18T15:19:29;1.25;;;0.68;;
38853;SDS011;24606;51.992;4.198;2023-05-18T15:24:30;2.95;;;0.88;;
38853;SDS011;24606;51.992;4.198;2023-05-18T15:29:34;3.33;;;1.45;;
38853;SDS011;24606;51.992;4.198;2023-05-18T15:34:35;2.53;;;0.80;;
38853;SDS011;24606;51.992;4.198;2023-05-18T15:39:37;3.22;;;0.90;;
38853;SDS011;24606;51.992;4.198;2023-05-18T15:44:40;1.80;;;0.98;;
38853;SDS011;24606;51.992;4.198;2023-05-18T15:49:42;1.85;;;1.08;;
38853;SDS011;24606;51.992;4.198;2023-05-18T15:54:44;1.92;;;0.90;;
38853;SDS011;24606;51.992;4.198;2023-05-18T15:59:47;2.03;;;0.98;;
38853;SDS011;24606;51.992;4.198;2023-05-18T16:04:49;1.90;;;0.82;;
38853;SDS011;24606;51.992;4.198;2023-05-18T16:09:51;2.05;;;1.27;;
38853;SDS011;24606;51.992;4.198;2023-05-18T16:14:54;2.25;;;0.98;;
38853;SDS011;24606;51.992;4.198;2023-05-18T16:19:56;2.88;;;1.30;;
38853;SDS011;24606;51.992;4.198;2023-05-18T16:24:58;2.72;;;1.10;;
38853;SDS011;24606;51.992;4.198;2023-05-18T16:30:01;2.53;;;0.80;;
38853;SDS011;24606;51.992;4.198;2023-05-18T16:35:03;3.42;;;1.05;;
38853;SDS011;24606;51.992;4.198;2023-05-18T16:40:05;7.10;;;1.85;;
38853;SDS011;24606;51.992;4.198;2023-05-18T16:45:09;3.33;;;1.17;;
38853;SDS011;24606;51.992;4.198;2023-05-18T16:50:11;3.15;;;1.40;;
38853;SDS011;24606;51.992;4.198;2023-05-18T16:55:13;2.20;;;0.98;;
38853;SDS011;24606;51.992;4.198;2023-05-18T17:00:16;3.22;;;1.38;;
38853;SDS011;24606;51.992;4.198;2023-05-18T17:05:19;3.00;;;1.52;;
38853;SDS011;24606;51.992;4.198;2023-05-18T17:10:22;2.70;;;2.03;;
38853;SDS011;24606;51.992;4.198;2023-05-18T17:15:25;6.40;;;3.38;;
38853;SDS011;24606;51.992;4.198;2023-05-18T17:20:27;5.80;;;2.85;;
38853;SDS011;24606;51.992;4.198;2023-05-18T17:25:28;7.93;;;4.13;;
38853;SDS011;24606;51.992;4.198;2023-05-18T17:30:32;6.22;;;3.15;;
38853;SDS011;24606;51.992;4.198;2023-05-18T17:35:33;4.65;;;2.38;;
38853;SDS011;24606;51.992;4.198;2023-05-18T17:40:35;3.67;;;2.38;;
38853;SDS011;24606;51.992;4.198;2023-05-18T17:45:39;6.22;;;2.65;;
38853;SDS011;24606;51.992;4.198;2023-05-18T17:50:41;4.22;;;2.13;;
38853;SDS011;24606;51.992;4.198;2023-05-18T17:55:44;3.17;;;1.85;;
38853;SDS011;24606;51.992;4.198;2023-05-18T18:00:47;2.97;;;2.17;;
38853;SDS011;24606;51.992;4.198;2023-05-18T18:05:49;7.38;;;2.75;;
38853;SDS011;24606;51.992;4.198;2023-05-18T18:10:51;3.35;;;1.90;;
38853;SDS011;24606;51.992;4.198;2023-05-18T18:15:55;6.13;;;2.05;;
38853;SDS011;24606;51.992;4.198;2023-05-18T18:20:56;5.32;;;2.08;;
38853;SDS011;24606;51.992;4.198;2023-05-18T18:25:58;4.15;;;2.20;;
38853;SDS011;24606;51.992;4.198;2023-05-18T18:31:02;2.38;;;1.50;;
38853;SDS011;24606;51.992;4.198;2023-05-18T18:36:04;3.67;;;1.65;;
38853;SDS011;24606;51.992;4.198;2023-05-18T18:41:06;1.92;;;1.70;;
38853;SDS011;24606;51.992;4.198;2023-05-18T18:46:10;2.13;;;1.90;;
38853;SDS011;24606;51.992;4.198;2023-05-18T18:51:11;2.00;;;1.80;;
38853;SDS011;24606;51.992;4.198;2023-05-18T18:56:13;4.07;;;1.52;;
38853;SDS011;24606;51.992;4.198;2023-05-18T19:01:17;1.80;;;1.20;;
38853;SDS011;24606;51.992;4.198;2023-05-18T19:06:19;2.60;;;1.50;;
38853;SDS011;24606;51.992;4.198;2023-05-18T19:11:22;2.47;;;1.67;;
38853;SDS011;24606;51.992;4.198;2023-05-18T19:16:25;2.20;;;1.40;;
38853;SDS011;24606;51.992;4.198;2023-05-18T19:21:27;2.45;;;1.30;;
38853;SDS011;24606;51.992;4.198;2023-05-18T19:26:28;2.25;;;1.10;;
38853;SDS011;24606;51.992;4.198;2023-05-18T19:31:33;1.58;;;1.02;;
38853;SDS011;24606;51.992;4.198;2023-05-18T19:36:36;2.78;;;1.45;;
38853;SDS011;24606;51.992;4.198;2023-05-18T19:41:37;6.93;;;1.20;;
38853;SDS011;24606;51.992;4.198;2023-05-18T19:46:40;1.65;;;1.30;;
38853;SDS011;24606;51.992;4.198;2023-05-18T19:51:43;3.80;;;1.50;;
38853;SDS011;24606;51.992;4.198;2023-05-18T19:56:47;2.20;;;1.02;;
38853;SDS011;24606;51.992;4.198;2023-05-18T20:01:50;2.28;;;1.20;;
38853;SDS011;24606;51.992;4.198;2023-05-18T20:06:53;4.90;;;1.40;;
38853;SDS011;24606;51.992;4.198;2023-05-18T20:11:57;2.33;;;1.23;;
38853;SDS011;24606;51.992;4.198;2023-05-18T20:17:01;2.83;;;1.30;;
38853;SDS011;24606;51.992;4.198;2023-05-18T20:22:03;2.15;;;1.55;;
38853;SDS011;24606;51.992;4.198;2023-05-18T20:27:07;2.75;;;1.50;;
38853;SDS011;24606;51.992;4.198;2023-05-18T20:32:10;2.05;;;1.10;;
38853;SDS011;24606;51.992;4.198;2023-05-18T20:37:12;3.25;;;1.60;;
38853;SDS011;24606;51.992;4.198;2023-05-18T20:42:13;2.65;;;1.20;;
38853;SDS011;24606;51.992;4.198;2023-05-18T20:47:17;4.00;;;1.70;;
38853;SDS011;24606;51.992;4.198;2023-05-18T20:52:20;3.03;;;1.50;;
38853;SDS011;24606;51.992;4.198;2023-05-18T20:57:22;2.03;;;1.35;;
38853;SDS011;24606;51.992;4.198;2023-05-18T21:02:25;2.92;;;1.48;;
38853;SDS011;24606;51.992;4.198;2023-05-18T21:07:27;3.92;;;1.85;;
38853;SDS011;24606;51.992;4.198;2023-05-18T21:12:28;3.70;;;1.90;;
38853;SDS011;24606;51.992;4.198;2023-05-18T21:17:32;4.30;;;1.50;;
38853;SDS011;24606;51.992;4.198;2023-05-18T21:22:34;2.75;;;1.67;;
38853;SDS011;24606;51.992;4.198;2023-05-18T21:27:35;2.78;;;1.50;;
38853;SDS011;24606;51.992;4.198;2023-05-18T21:32:39;2.72;;;1.65;;
38853;SDS011;24606;51.992;4.198;2023-05-18T21:37:42;4.50;;;1.67;;
38853;SDS011;24606;51.992;4.198;2023-05-18T21:42:44;2.53;;;1.77;;
38853;SDS011;24606;51.992;4.198;2023-05-18T21:47:47;3.42;;;2.42;;
38853;SDS011;24606;51.992;4.198;2023-05-18T21:52:49;5.65;;;2.30;;
38853;SDS011;24606;51.992;4.198;2023-05-18T21:57:51;4.95;;;2.17;;
38853;SDS011;24606;51.992;4.198;2023-05-18T22:02:54;6.53;;;2.33;;
38853;SDS011;24606;51.992;4.198;2023-05-18T22:07:56;4.65;;;2.67;;
38853;SDS011;24606;51.992;4.198;2023-05-18T22:12:58;3.55;;;2.60;;
38853;SDS011;24606;51.992;4.198;2023-05-18T22:18:01;7.55;;;2.67;;
38853;SDS011;24606;51.992;4.198;2023-05-18T22:23:04;3.10;;;2.47;;
38853;SDS011;24606;51.992;4.198;2023-05-18T22:28:06;4.20;;;3.00;;
38853;SDS011;24606;51.992;4.198;2023-05-18T22:33:09;4.38;;;2.80;;
38853;SDS011;24606;51.992;4.198;2023-05-18T22:38:10;4.22;;;2.67;;
38853;SDS011;24606;51.992;4.198;2023-05-18T22:43:12;4.53;;;2.85;;
38853;SDS011;24606;51.992;4.198;2023-05-18T22:48:15;4.45;;;2.92;;
38853;SDS011;24606;51.992;4.198;2023-05-18T22:53:17;6.68;;;3.20;;
38853;SDS011;24606;51.992;4.198;2023-05-18T22:58:19;6.82;;;3.95;;
38853;SDS011;24606;51.992;4.198;2023-05-18T23:03:22;8.32;;;3.25;;
38853;SDS011;24606;51.992;4.198;2023-05-18T23:08:24;7.22;;;3.53;;
38853;SDS011;24606;51.992;4.198;2023-05-18T23:13:26;7.68;;;4.13;;
38853;SDS011;24606;51.992;4.198;2023-05-18T23:18:31;5.85;;;3.88;;
38853;SDS011;24606;51.992;4.198;2023-05-18T23:23:33;7.22;;;4.28;;
38853;SDS011;24606;51.992;4.198;2023-05-18T23:28:35;7.38;;;4.65;;
38853;SDS011;24606;51.992;4.198;2023-05-18T23:33:38;8.65;;;5.15;;
38853;SDS011;24606;51.992;4.198;2023-05-18T23:38:40;6.85;;;4.28;;
38853;SDS011;24606;51.992;4.198;2023-05-18T23:43:45;8.85;;;5.03;;
38853;SDS011;24606;51.992;4.198;2023-05-18T23:48:49;8.02;;;5.25;;
38853;SDS011;24606;51.992;4.198;2023-05-18T23:53:52;7.25;;;4.80;;
38853;SDS011;24606;51.992;4.198;2023-05-18T23:58:54;10.02;;;5.93;;
